Main page
METAR-TAF:

METAR-TAF

Airports :

Basra International Airport

Basra, Iraq

latitude: 30-32-56N, longitude: 47-39-45E, elevation: 1 m

Current weather observation

The report was made 1 hour and 27 minutes ago, at 01:00 UTC
Calm wind
Temperature 26°C
Humidity 30%
Pressure 1007 hPa
Visibility 10 km or more
no clouds below 1500 m and no cumulonimbus

METAR: ORMM 220100Z 00000KT CAVOK 26/07 Q1007 NOSIG

Time: 05:27 (02:27 UTC)

Forecast

The report was made 3 hours and 27 minutes ago, at 23:00 UTC
Forecast valid from 22 at 00 UTC to 22 at 24 UTC
Wind 3 kt from variable directions
Visibility: 8000 m
Becoming
from 22 at 08 UTC to 22 at 10 UTC
Wind 10 kt from the West/Northwest
Visibility 10 km or more
no clouds below 1500 m and no cumulonimbus

TAF: ORMM 212300Z 2200/2224 VRB03KT 8000 NSC BECMG 2208/2210 30010KT CAVOK

Weather observations and forecasts of more than 4000 airports (METAR and TAF reports).

The available stations are represented by yellow and red dots on the map.

Hover mouse over dot to see the name of the station.

Then click to see weather observations and forecasts.

To change the map : click on the green buttons with a black cross to zoom in, on the green button with a dash to zoom out, or on the green arrows for adjacent maps.


METAR-TAF: